Time;durP1;ratioP1;P1;durP2;ratioP2;P2;SDS_P1;SDS_P2;PMS_P1;PMS_P2;Temp;Humidity;BMP_temperature;BMP_pressure;BME280_temperature;BME280_humidity;BME280_pressure;Samples;Min_cycle;Max_cycle;Signal;HPM_P1;HPM_P2
2021/05/16 00:00:17;;;;;;;3.13;1.60;;;;;;;;;;5052571;28;20040;-56
2021/05/16 00:02:44;;;;;;;4.85;1.77;;;;;;;;;;5052432;28;20033;-56
2021/05/16 00:05:14;;;;;;;2.83;1.60;;;;;;;;;;5052992;28;20025;-56
2021/05/16 00:07:41;;;;;;;3.50;1.88;;;;;;;;;;5052638;28;20031;-56
2021/05/16 00:10:09;;;;;;;5.05;1.90;;;;;;;;;;5052379;28;20029;-56
2021/05/16 00:12:36;;;;;;;4.47;1.65;;;;;;;;;;5053326;28;20091;-56
2021/05/16 00:15:05;;;;;;;5.95;2.08;;;;;;;;;;5052482;28;20537;-56
2021/05/16 00:17:32;;;;;;;3.58;1.83;;;;;;;;;;5052650;28;20060;-56
2021/05/16 00:19:58;;;;;;;4.40;1.70;;;;;;;;;;5052475;28;20500;-56
2021/05/16 00:22:25;;;;;;;5.85;1.70;;;;;;;;;;5052696;28;20040;-56
2021/05/16 00:24:52;;;;;;;3.50;1.65;;;;;;;;;;5056456;28;20036;-56
2021/05/16 00:27:19;;;;;;;3.83;1.63;;;;;;;;;;5056424;28;20451;-56
2021/05/16 00:29:46;;;;;;;2.85;1.40;;;;;;;;;;5056363;28;20486;-56
2021/05/16 00:32:12;;;;;;;2.70;1.52;;;;;;;;;;5056240;28;20488;-56
2021/05/16 00:34:39;;;;;;;5.28;1.52;;;;;;;;;;5038381;28;20467;-56
2021/05/16 00:37:06;;;;;;;4.10;2.00;;;;;;;;;;5056244;28;20437;-56
2021/05/16 00:39:33;;;;;;;4.13;1.60;;;;;;;;;;5056138;28;20395;-56
2021/05/16 00:41:59;;;;;;;2.57;1.50;;;;;;;;;;5056034;28;20388;-56
2021/05/16 00:44:26;;;;;;;3.53;1.67;;;;;;;;;;5056052;28;20024;-56
2021/05/16 00:46:53;;;;;;;2.43;1.53;;;;;;;;;;5056180;28;20029;-56
2021/05/16 00:49:20;;;;;;;4.10;1.60;;;;;;;;;;5055962;28;20031;-56
2021/05/16 00:51:46;;;;;;;4.77;1.77;;;;;;;;;;5055836;28;20029;-56
2021/05/16 00:54:13;;;;;;;3.27;1.77;;;;;;;;;;5055947;28;20032;-56
2021/05/16 00:56:40;;;;;;;5.17;1.80;;;;;;;;;;5055839;28;20530;-56
2021/05/16 00:59:08;;;;;;;5.63;2.00;;;;;;;;;;5055761;28;20132;-56
2021/05/16 01:01:34;;;;;;;4.33;1.97;;;;;;;;;;5055590;28;20381;-56
2021/05/16 01:04:01;;;;;;;3.30;2.20;;;;;;;;;;5055624;28;20029;-56
2021/05/16 01:06:28;;;;;;;3.00;1.40;;;;;;;;;;5055841;28;20546;-56
2021/05/16 01:08:58;;;;;;;2.70;1.60;;;;;;;;;;5055751;28;20049;-56
2021/05/16 01:11:29;;;;;;;4.33;1.60;;;;;;;;;;5055457;28;20586;-56
2021/05/16 01:13:56;;;;;;;2.17;1.37;;;;;;;;;;5056423;28;20079;-56
2021/05/16 01:16:23;;;;;;;5.03;2.10;;;;;;;;;;5055499;28;20444;-56
2021/05/16 01:18:50;;;;;;;8.07;3.60;;;;;;;;;;5055562;28;20032;-56
2021/05/16 01:21:17;;;;;;;9.13;3.27;;;;;;;;;;5055350;28;20044;-56
2021/05/16 01:23:48;;;;;;;6.97;3.80;;;;;;;;;;5055370;28;20028;-56
2021/05/16 01:26:15;;;;;;;8.43;3.80;;;;;;;;;;5055410;28;20104;-56
2021/05/16 01:28:43;;;;;;;6.93;4.00;;;;;;;;;;5055356;28;20468;-56
2021/05/16 01:31:11;;;;;;;7.13;3.57;;;;;;;;;;5055331;28;20104;-56
2021/05/16 01:33:38;;;;;;;5.30;2.80;;;;;;;;;;5055185;28;20168;-56
2021/05/16 01:36:05;;;;;;;7.63;3.90;;;;;;;;;;5055025;28;20139;-56
2021/05/16 01:38:32;;;;;;;6.43;3.57;;;;;;;;;;5055103;28;20037;-56
2021/05/16 01:40:59;;;;;;;7.47;3.70;;;;;;;;;;5054971;28;20119;-56
2021/05/16 01:43:26;;;;;;;6.63;3.37;;;;;;;;;;5054979;28;20044;-56
2021/05/16 01:45:53;;;;;;;6.33;2.97;;;;;;;;;;5055216;28;20040;-56
2021/05/16 01:48:19;;;;;;;5.03;3.00;;;;;;;;;;5055104;28;20031;-56
2021/05/16 01:50:46;;;;;;;6.67;3.63;;;;;;;;;;5055007;28;20033;-56
2021/05/16 01:53:13;;;;;;;8.77;3.30;;;;;;;;;;5054866;28;20031;-56
2021/05/16 01:55:40;;;;;;;5.93;2.77;;;;;;;;;;5054759;28;20033;-56
2021/05/16 01:58:07;;;;;;;5.63;3.03;;;;;;;;;;5054728;28;20024;-56
2021/05/16 02:00:33;;;;;;;6.50;3.03;;;;;;;;;;5054728;28;20029;-56
2021/05/16 02:03:00;;;;;;;9.73;4.27;;;;;;;;;;5054543;28;20476;-56
2021/05/16 02:05:28;;;;;;;9.03;4.23;;;;;;;;;;5054528;28;20025;-57
2021/05/16 02:07:55;;;;;;;9.10;4.13;;;;;;;;;;5054617;28;20534;-60
2021/05/16 02:10:22;;;;;;;10.93;4.83;;;;;;;;;;5054498;28;20032;-58
2021/05/16 02:12:50;;;;;;;6.93;3.90;;;;;;;;;;5055351;28;20053;-57
2021/05/16 02:15:16;;;;;;;4.77;2.80;;;;;;;;;;5054385;28;20029;-57
2021/05/16 02:17:44;;;;;;;7.17;3.40;;;;;;;;;;5054360;28;20025;-58
2021/05/16 02:20:20;;;;;;;8.90;3.70;;;;;;;;;;5054393;28;20056;-57
2021/05/16 02:22:47;;;;;;;8.40;3.40;;;;;;;;;;5054121;28;20033;-57
2021/05/16 02:25:14;;;;;;;13.20;4.23;;;;;;;;;;5054377;28;20028;-57
2021/05/16 02:27:41;;;;;;;10.93;5.33;;;;;;;;;;5053966;28;20031;-57
2021/05/16 02:30:09;;;;;;;15.90;4.77;;;;;;;;;;5054111;28;20017;-57
2021/05/16 02:32:37;;;;;;;12.53;4.67;;;;;;;;;;5054093;28;20025;-57
2021/05/16 02:35:04;;;;;;;10.10;4.27;;;;;;;;;;5053947;28;20570;-57
2021/05/16 02:37:31;;;;;;;8.43;4.07;;;;;;;;;;5054042;28;20083;-56
2021/05/16 02:39:58;;;;;;;7.57;3.87;;;;;;;;;;5053954;28;20096;-56
2021/05/16 02:42:25;;;;;;;9.17;4.20;;;;;;;;;;5053773;28;20498;-57
2021/05/16 02:44:52;;;;;;;7.47;3.97;;;;;;;;;;5053392;28;20025;-57
2021/05/16 02:47:18;;;;;;;6.57;3.57;;;;;;;;;;5053490;28;20067;-56
2021/05/16 02:49:45;;;;;;;9.00;4.20;;;;;;;;;;5053740;28;20025;-56
2021/05/16 02:52:12;;;;;;;10.27;3.57;;;;;;;;;;5053532;28;20036;-56
2021/05/16 02:54:47;;;;;;;8.93;3.97;;;;;;;;;;5053700;28;20067;-56
2021/05/16 02:57:14;;;;;;;7.97;3.53;;;;;;;;;;5053605;28;20083;-56
2021/05/16 02:59:40;;;;;;;10.67;4.33;;;;;;;;;;5035557;28;20480;-56
2021/05/16 03:02:07;;;;;;;4.97;3.37;;;;;;;;;;5053435;28;20029;-56
2021/05/16 03:04:34;;;;;;;9.30;3.70;;;;;;;;;;5035616;28;20472;-56
2021/05/16 03:07:01;;;;;;;11.20;3.77;;;;;;;;;;5053390;28;20033;-56
2021/05/16 03:09:37;;;;;;;7.50;4.20;;;;;;;;;;5053258;28;20036;-56
2021/05/16 03:12:14;;;;;;;5.77;3.80;;;;;;;;;;5053945;28;20036;-56
2021/05/16 03:14:47;;;;;;;6.33;4.07;;;;;;;;;;5033483;28;20368;-56
2021/05/16 03:17:19;;;;;;;6.07;3.50;;;;;;;;;;5032909;28;20160;-56
2021/05/16 03:19:45;;;;;;;8.70;4.07;;;;;;;;;;5033358;28;20033;-56
2021/05/16 03:22:19;;;;;;;6.13;4.00;;;;;;;;;;5033205;28;20037;-56
2021/05/16 03:24:53;;;;;;;8.20;4.20;;;;;;;;;;5032389;28;20036;-56
2021/05/16 03:27:30;;;;;;;6.97;4.10;;;;;;;;;;5033221;28;20649;-56
2021/05/16 03:29:56;;;;;;;9.67;5.07;;;;;;;;;;5031262;28;20040;-56
2021/05/16 03:32:23;;;;;;;9.43;4.57;;;;;;;;;;5033042;28;20021;-56
2021/05/16 03:34:50;;;;;;;10.67;4.77;;;;;;;;;;5033152;28;20476;-56
2021/05/16 03:37:18;;;;;;;9.23;4.50;;;;;;;;;;5033040;28;20357;-56
2021/05/16 03:39:44;;;;;;;10.97;4.33;;;;;;;;;;5032981;28;20029;-56
2021/05/16 03:42:11;;;;;;;5.57;3.57;;;;;;;;;;5032771;28;20037;-56
2021/05/16 03:44:38;;;;;;;7.20;4.47;;;;;;;;;;5032970;28;20022;-56
2021/05/16 03:47:05;;;;;;;6.53;4.40;;;;;;;;;;5032877;28;20419;-56
2021/05/16 03:49:31;;;;;;;11.10;4.97;;;;;;;;;;5033043;28;20153;-56
2021/05/16 03:51:58;;;;;;;7.57;5.03;;;;;;;;;;5032767;28;20029;-56
2021/05/16 03:54:25;;;;;;;19.20;5.90;;;;;;;;;;5032806;28;20031;-56
2021/05/16 03:56:52;;;;;;;7.63;4.93;;;;;;;;;;5032563;28;20025;-56
2021/05/16 03:59:19;;;;;;;10.67;4.73;;;;;;;;;;5032680;28;20029;-56
2021/05/16 04:01:46;;;;;;;9.83;5.00;;;;;;;;;;5032705;28;20038;-56
2021/05/16 04:04:12;;;;;;;11.53;5.90;;;;;;;;;;5032694;28;20104;-56
2021/05/16 04:06:39;;;;;;;8.07;4.80;;;;;;;;;;5032677;28;20029;-56
2021/05/16 04:09:06;;;;;;;13.47;5.13;;;;;;;;;;5032707;28;20179;-57
2021/05/16 04:11:33;;;;;;;11.57;4.83;;;;;;;;;;5032855;28;20029;-57
2021/05/16 04:14:00;;;;;;;12.93;5.03;;;;;;;;;;5048902;28;20488;-57
2021/05/16 04:16:27;;;;;;;8.60;4.83;;;;;;;;;;5052372;28;20037;-57
2021/05/16 04:18:53;;;;;;;5.63;4.33;;;;;;;;;;5052575;28;20017;-57
2021/05/16 04:21:26;;;;;;;6.07;3.87;;;;;;;;;;5052309;28;20041;-57
2021/05/16 04:23:55;;;;;;;10.67;5.00;;;;;;;;;;5052041;28;20067;-57
2021/05/16 04:26:31;;;;;;;8.40;4.87;;;;;;;;;;5052321;28;20036;-57
2021/05/16 04:29:00;;;;;;;10.80;5.57;;;;;;;;;;5051481;28;20060;-58
2021/05/16 04:31:26;;;;;;;10.17;5.07;;;;;;;;;;5052432;28;20025;-58
2021/05/16 04:33:53;;;;;;;6.00;4.23;;;;;;;;;;5052231;28;20029;-59
2021/05/16 04:36:20;;;;;;;10.20;5.30;;;;;;;;;;5052296;28;20184;-58
2021/05/16 04:38:48;;;;;;;9.23;5.13;;;;;;;;;;5052183;28;20025;-58
2021/05/16 04:41:15;;;;;;;8.40;5.00;;;;;;;;;;5051965;28;20037;-59
2021/05/16 04:43:42;;;;;;;13.83;6.63;;;;;;;;;;5052324;28;20056;-59
2021/05/16 04:46:09;;;;;;;8.40;5.00;;;;;;;;;;5052136;28;20051;-59
2021/05/16 04:48:36;;;;;;;9.70;5.50;;;;;;;;;;5052142;28;20505;-59
2021/05/16 04:51:04;;;;;;;10.63;5.37;;;;;;;;;;5052056;28;20033;-59
2021/05/16 04:53:33;;;;;;;10.87;5.30;;;;;;;;;;5051965;28;20057;-59
2021/05/16 04:56:01;;;;;;;10.17;5.53;;;;;;;;;;5052110;28;20567;-59
2021/05/16 04:58:28;;;;;;;10.13;5.40;;;;;;;;;;5052224;28;20513;-59
2021/05/16 05:00:55;;;;;;;9.50;4.70;;;;;;;;;;5051889;28;20036;-59
2021/05/16 05:03:22;;;;;;;8.17;4.40;;;;;;;;;;5052101;28;20032;-58
2021/05/16 05:05:51;;;;;;;6.87;4.50;;;;;;;;;;5051928;28;20029;-58
2021/05/16 05:08:18;;;;;;;6.57;4.10;;;;;;;;;;5052423;28;20466;-58
2021/05/16 05:10:45;;;;;;;5.77;4.00;;;;;;;;;;5055666;28;20100;-58
2021/05/16 05:13:12;;;;;;;7.33;4.50;;;;;;;;;;5056685;28;20257;-58
2021/05/16 05:15:39;;;;;;;8.20;4.87;;;;;;;;;;5055606;28;20044;-58
2021/05/16 05:18:06;;;;;;;7.70;5.10;;;;;;;;;;5055707;28;20123;-58
2021/05/16 05:20:33;;;;;;;7.90;4.57;;;;;;;;;;5055377;28;20483;-58
2021/05/16 05:23:00;;;;;;;11.10;5.13;;;;;;;;;;5055432;28;20033;-58
2021/05/16 05:25:28;;;;;;;12.03;4.93;;;;;;;;;;5055414;28;20472;-58
2021/05/16 05:27:55;;;;;;;6.83;4.03;;;;;;;;;;5055262;28;20025;-58
2021/05/16 05:30:26;;;;;;;5.83;4.03;;;;;;;;;;5055394;28;20502;-57
2021/05/16 05:32:53;;;;;;;7.83;4.27;;;;;;;;;;5055392;28;20087;-57
2021/05/16 05:35:20;;;;;;;10.33;4.67;;;;;;;;;;5055192;28;20029;-57
2021/05/16 05:37:47;;;;;;;7.83;4.37;;;;;;;;;;5055265;28;20043;-57
2021/05/16 05:40:14;;;;;;;8.13;3.90;;;;;;;;;;5055183;28;20029;-57
2021/05/16 05:42:42;;;;;;;6.10;3.87;;;;;;;;;;5054827;28;20044;-57
2021/05/16 05:45:10;;;;;;;8.60;4.57;;;;;;;;;;5054484;28;20036;-57
2021/05/16 05:47:41;;;;;;;8.50;4.47;;;;;;;;;;5054823;28;20033;-57
2021/05/16 05:50:13;;;;;;;7.97;4.03;;;;;;;;;;5054981;28;20104;-57
2021/05/16 05:52:46;;;;;;;7.17;4.73;;;;;;;;;;5054472;28;20033;-57
2021/05/16 05:55:13;;;;;;;6.53;4.20;;;;;;;;;;5054859;28;20021;-57
2021/05/16 05:57:39;;;;;;;6.03;3.77;;;;;;;;;;5054678;28;20534;-57
2021/05/16 06:00:07;;;;;;;6.07;3.50;;;;;;;;;;5054386;28;20387;-57
2021/05/16 06:02:33;;;;;;;6.07;3.80;;;;;;;;;;5054653;28;20497;-56
2021/05/16 06:05:00;;;;;;;5.30;3.70;;;;;;;;;;5054580;28;20025;-57
2021/05/16 06:07:27;;;;;;;8.03;4.03;;;;;;;;;;5054690;28;20025;-57
2021/05/16 06:09:54;;;;;;;5.90;3.93;;;;;;;;;;5054498;28;20388;-57
2021/05/16 06:12:21;;;;;;;6.43;3.63;;;;;;;;;;5054503;28;20495;-57
2021/05/16 06:14:52;;;;;;;7.20;3.50;;;;;;;;;;5053371;28;20053;-57
2021/05/16 06:17:19;;;;;;;7.63;4.37;;;;;;;;;;5054470;28;20016;-57
2021/05/16 06:19:46;;;;;;;6.33;4.07;;;;;;;;;;5054314;28;20123;-57
2021/05/16 06:22:14;;;;;;;6.27;3.10;;;;;;;;;;5054145;28;20483;-57
2021/05/16 06:24:41;;;;;;;7.73;3.53;;;;;;;;;;5054370;28;20079;-57
2021/05/16 06:27:08;;;;;;;7.00;3.13;;;;;;;;;;5054326;28;20515;-57
2021/05/16 06:29:35;;;;;;;7.57;3.93;;;;;;;;;;5054257;28;20476;-57
2021/05/16 06:32:02;;;;;;;5.57;3.00;;;;;;;;;;5054175;28;20439;-57
2021/05/16 06:34:29;;;;;;;6.47;3.30;;;;;;;;;;5053974;28;20435;-57
2021/05/16 06:36:56;;;;;;;5.00;2.80;;;;;;;;;;5053983;28;20037;-57
2021/05/16 06:39:23;;;;;;;4.53;2.60;;;;;;;;;;5054012;28;20423;-57
2021/05/16 06:41:50;;;;;;;7.07;2.93;;;;;;;;;;5053858;28;20451;-57
2021/05/16 06:44:18;;;;;;;4.70;2.33;;;;;;;;;;5053770;28;20025;-57
2021/05/16 06:46:45;;;;;;;6.33;2.93;;;;;;;;;;5053786;28;20028;-57
2021/05/16 06:49:12;;;;;;;8.67;3.13;;;;;;;;;;5053679;28;20035;-57
2021/05/16 06:51:39;;;;;;;7.43;3.00;;;;;;;;;;5053773;28;20021;-57
2021/05/16 06:54:07;;;;;;;6.33;2.90;;;;;;;;;;5053612;28;20111;-57
2021/05/16 06:56:37;;;;;;;4.37;2.60;;;;;;;;;;5053586;28;20108;-58
2021/05/16 06:59:04;;;;;;;6.63;2.57;;;;;;;;;;5053564;28;20104;-59
2021/05/16 07:01:32;;;;;;;5.87;2.33;;;;;;;;;;5053395;28;20041;-59
2021/05/16 07:03:59;;;;;;;5.23;2.40;;;;;;;;;;5053600;28;20537;-59
2021/05/16 07:06:27;;;;;;;14.77;4.50;;;;;;;;;;5053366;28;20108;-59
2021/05/16 07:08:53;;;;;;;5.83;3.30;;;;;;;;;;5053311;28;20017;-59
2021/05/16 07:11:20;;;;;;;11.37;4.20;;;;;;;;;;5053256;28;20016;-59
2021/05/16 07:13:47;;;;;;;10.13;4.00;;;;;;;;;;5054360;28;20543;-58
2021/05/16 07:16:14;;;;;;;8.50;3.67;;;;;;;;;;5053251;28;20029;-58
2021/05/16 07:18:42;;;;;;;10.43;4.80;;;;;;;;;;5053244;28;20036;-58
2021/05/16 07:21:09;;;;;;;5.97;3.90;;;;;;;;;;5052996;28;20033;-58
2021/05/16 07:23:35;;;;;;;7.03;3.80;;;;;;;;;;5053320;28;20033;-57
2021/05/16 07:26:02;;;;;;;6.00;3.77;;;;;;;;;;5053243;28;20100;-57
2021/05/16 07:28:29;;;;;;;5.93;3.70;;;;;;;;;;5053091;28;20423;-57
2021/05/16 07:30:56;;;;;;;5.63;3.10;;;;;;;;;;5052766;28;20051;-57
2021/05/16 07:33:23;;;;;;;5.93;3.60;;;;;;;;;;5052865;28;20029;-57
2021/05/16 07:35:50;;;;;;;6.33;3.00;;;;;;;;;;5052913;28;20113;-57
2021/05/16 07:38:18;;;;;;;4.63;2.83;;;;;;;;;;5052985;28;20020;-57
2021/05/16 07:40:57;;;;;;;4.37;2.97;;;;;;;;;;5052543;28;20859;-56
2021/05/16 07:43:25;;;;;;;6.93;2.73;;;;;;;;;;5052928;28;20033;-56
2021/05/16 07:45:53;;;;;;;5.43;2.67;;;;;;;;;;5052820;28;20017;-56
2021/05/16 07:48:28;;;;;;;4.47;2.40;;;;;;;;;;5052594;28;20078;-56
2021/05/16 07:50:55;;;;;;;4.00;2.20;;;;;;;;;;5052595;28;20121;-56
2021/05/16 07:53:22;;;;;;;4.33;2.20;;;;;;;;;;5052743;28;20396;-56
2021/05/16 07:55:49;;;;;;;5.60;2.17;;;;;;;;;;5052589;28;20028;-56
2021/05/16 07:58:16;;;;;;;4.10;1.87;;;;;;;;;;5052804;28;20079;-56
2021/05/16 08:00:42;;;;;;;4.30;2.30;;;;;;;;;;5052803;28;20020;-56
2021/05/16 08:03:09;;;;;;;5.73;2.40;;;;;;;;;;5052873;28;20036;-57
2021/05/16 08:05:36;;;;;;;4.57;2.40;;;;;;;;;;5052566;28;20025;-58
2021/05/16 08:08:03;;;;;;;5.70;2.17;;;;;;;;;;5052510;28;20029;-58
2021/05/16 08:10:30;;;;;;;6.27;2.70;;;;;;;;;;5052448;28;20094;-59
2021/05/16 08:12:57;;;;;;;4.37;2.43;;;;;;;;;;5052688;28;20495;-59
2021/05/16 08:15:25;;;;;;;7.13;2.90;;;;;;;;;;5052659;28;20500;-57
2021/05/16 08:17:52;;;;;;;3.70;1.80;;;;;;;;;;5052414;28;20029;-57
2021/05/16 08:20:19;;;;;;;4.93;2.13;;;;;;;;;;5052440;28;20025;-57
2021/05/16 08:22:46;;;;;;;4.43;2.33;;;;;;;;;;5052312;28;20143;-57
2021/05/16 08:25:13;;;;;;;7.40;2.30;;;;;;;;;;5052355;28;20046;-56
2021/05/16 08:27:41;;;;;;;4.60;2.63;;;;;;;;;;5052466;28;20496;-56
2021/05/16 08:30:08;;;;;;;3.47;2.17;;;;;;;;;;5052550;28;20025;-56
2021/05/16 08:32:34;;;;;;;3.70;2.00;;;;;;;;;;5052498;28;20029;-56
2021/05/16 08:35:01;;;;;;;4.00;2.27;;;;;;;;;;5052478;28;20033;-56
2021/05/16 08:37:28;;;;;;;4.70;2.20;;;;;;;;;;5052531;28;20035;-56
2021/05/16 08:39:55;;;;;;;3.97;2.17;;;;;;;;;;5052308;28;20108;-56
2021/05/16 08:42:22;;;;;;;4.47;2.37;;;;;;;;;;5052041;28;20037;-56
2021/05/16 08:44:48;;;;;;;5.83;2.20;;;;;;;;;;5055081;28;20429;-56
2021/05/16 08:47:15;;;;;;;5.37;2.63;;;;;;;;;;5056007;28;20029;-56
2021/05/16 08:49:43;;;;;;;5.43;1.93;;;;;;;;;;5056036;28;20021;-56
2021/05/16 08:52:10;;;;;;;3.67;2.03;;;;;;;;;;5055959;28;20495;-56
2021/05/16 08:54:37;;;;;;;2.93;1.90;;;;;;;;;;5055802;28;20029;-55
2021/05/16 08:57:03;;;;;;;4.43;2.07;;;;;;;;;;5055813;28;20080;-56
2021/05/16 08:59:30;;;;;;;3.03;2.10;;;;;;;;;;5055914;28;20025;-55
2021/05/16 09:01:58;;;;;;;4.30;2.10;;;;;;;;;;5055739;28;20095;-56
2021/05/16 09:04:33;;;;;;;3.27;1.93;;;;;;;;;;5055837;28;20380;-56
2021/05/16 09:07:00;;;;;;;3.00;1.73;;;;;;;;;;5055903;28;20055;-54
2021/05/16 09:09:30;;;;;;;3.17;1.80;;;;;;;;;;5055609;28;20068;-55
2021/05/16 09:12:00;;;;;;;2.80;1.37;;;;;;;;;;5055467;28;20052;-55
2021/05/16 09:14:40;;;;;;;2.30;1.67;;;;;;;;;;5055958;28;20076;-55
2021/05/16 09:17:20;;;;;;;3.17;2.00;;;;;;;;;;5055558;28;20021;-55
2021/05/16 09:19:51;;;;;;;2.83;1.40;;;;;;;;;;5055582;28;20024;-55
2021/05/16 09:22:38;;;;;;;3.43;1.50;;;;;;;;;;5055248;28;20037;-55
2021/05/16 09:25:14;;;;;;;4.67;1.50;;;;;;;;;;5038830;28;20039;-55
2021/05/16 09:27:41;;;;;;;1.63;1.23;;;;;;;;;;5055312;28;20284;-55
2021/05/16 09:30:22;;;;;;;2.13;1.30;;;;;;;;;;5055422;28;20029;-55
2021/05/16 09:32:49;;;;;;;2.80;1.63;;;;;;;;;;5055431;28;20176;-56
2021/05/16 09:35:17;;;;;;;2.00;1.20;;;;;;;;;;5055299;28;20025;-55
2021/05/16 09:37:56;;;;;;;1.97;1.33;;;;;;;;;;5055230;28;20033;-56
2021/05/16 09:40:24;;;;;;;2.30;1.40;;;;;;;;;;5055101;28;20383;-55
2021/05/16 09:43:10;;;;;;;2.47;1.50;;;;;;;;;;5055008;28;20037;-55
2021/05/16 09:45:53;;;;;;;1.77;1.20;;;;;;;;;;5054994;28;20474;-55
2021/05/16 09:48:28;;;;;;;1.43;1.13;;;;;;;;;;5054929;28;20082;-56
2021/05/16 09:51:11;;;;;;;3.75;1.17;;;;;;;;;;5054866;28;20392;-55
2021/05/16 09:53:52;;;;;;;2.43;1.37;;;;;;;;;;5054712;28;20029;-56
2021/05/16 09:56:22;;;;;;;1.43;1.10;;;;;;;;;;5054546;28;20021;-56
2021/05/16 09:58:50;;;;;;;2.50;1.40;;;;;;;;;;5054616;28;20024;-56
2021/05/16 10:01:17;;;;;;;2.63;1.53;;;;;;;;;;5054713;28;20029;-55
2021/05/16 10:03:46;;;;;;;1.40;1.00;;;;;;;;;;5054764;28;20020;-55
2021/05/16 10:06:13;;;;;;;1.63;1.10;;;;;;;;;;5054798;28;20028;-55
2021/05/16 10:08:42;;;;;;;7.60;1.17;;;;;;;;;;5054795;28;20082;-55
2021/05/16 10:11:09;;;;;;;2.37;1.30;;;;;;;;;;5054719;28;20032;-55
2021/05/16 10:13:37;;;;;;;2.07;1.10;;;;;;;;;;5055484;28;20040;-55
2021/05/16 10:16:04;;;;;;;2.23;1.27;;;;;;;;;;5054880;28;20460;-55
2021/05/16 10:18:33;;;;;;;2.07;1.13;;;;;;;;;;5054345;28;20043;-55
2021/05/16 10:21:00;;;;;;;2.00;1.40;;;;;;;;;;5054259;28;20495;-55
2021/05/16 10:23:36;;;;;;;2.17;1.23;;;;;;;;;;5054237;28;20116;-55
2021/05/16 10:26:20;;;;;;;1.90;1.10;;;;;;;;;;5054311;28;20373;-55
2021/05/16 10:28:54;;;;;;;1.33;1.20;;;;;;;;;;5054138;28;20530;-55
2021/05/16 10:31:39;;;;;;;2.47;1.30;;;;;;;;;;5054053;28;20029;-55
2021/05/16 10:34:39;;;;;;;2.08;1.27;;;;;;;;;;5054195;28;20021;-55
2021/05/16 10:37:06;;;;;;;1.83;1.30;;;;;;;;;;5001217;28;20487;-55
2021/05/16 10:39:40;;;;;;;2.40;1.50;;;;;;;;;;5054044;28;20028;-55
2021/05/16 10:42:13;;;;;;;2.33;1.53;;;;;;;;;;5053872;28;20037;-55
2021/05/16 10:44:55;;;;;;;2.23;1.40;;;;;;;;;;5054055;28;20498;-55
2021/05/16 10:47:39;;;;;;;2.27;1.30;;;;;;;;;;5054040;28;20025;-55
2021/05/16 10:50:06;;;;;;;1.85;1.27;;;;;;;;;;5053705;28;20028;-55
2021/05/16 10:52:33;;;;;;;2.20;1.33;;;;;;;;;;5053742;28;20071;-55
2021/05/16 10:55:00;;;;;;;1.93;1.33;;;;;;;;;;5053735;28;20112;-55
2021/05/16 10:57:37;;;;;;;2.70;1.40;;;;;;;;;;5053785;28;20033;-55
2021/05/16 11:00:22;;;;;;;2.70;1.43;;;;;;;;;;5053700;28;20028;-55
2021/05/16 11:03:01;;;;;;;3.03;1.55;;;;;;;;;;5053553;28;20463;-55
2021/05/16 11:08:13;;;;;;;5.57;1.70;;;;;;;;;;5053066;28;20480;-55
2021/05/16 11:10:40;;;;;;;3.00;1.93;;;;;;;;;;5053200;28;20021;-55
2021/05/16 11:13:08;;;;;;;2.70;1.80;;;;;;;;;;5054371;28;20112;-55
2021/05/16 11:15:35;;;;;;;4.13;2.20;;;;;;;;;;5053405;28;20032;-54
2021/05/16 11:18:01;;;;;;;2.33;1.63;;;;;;;;;;5053238;28;20028;-55
2021/05/16 11:20:28;;;;;;;3.30;2.03;;;;;;;;;;5053191;28;20066;-55
2021/05/16 11:22:58;;;;;;;3.73;2.07;;;;;;;;;;5053124;28;20641;-55
2021/05/16 11:25:25;;;;;;;3.97;2.73;;;;;;;;;;5053184;28;20025;-55
2021/05/16 11:27:52;;;;;;;3.00;1.90;;;;;;;;;;5053047;28;20051;-55
2021/05/16 11:30:21;;;;;;;4.20;2.57;;;;;;;;;;5052983;28;20025;-55
2021/05/16 11:32:48;;;;;;;4.70;2.30;;;;;;;;;;5053046;28;20025;-55
2021/05/16 11:35:16;;;;;;;3.07;1.97;;;;;;;;;;5053114;28;20017;-55
2021/05/16 11:37:47;;;;;;;3.73;2.30;;;;;;;;;;5053009;28;20025;-55
2021/05/16 11:40:15;;;;;;;4.43;2.37;;;;;;;;;;5052821;28;20387;-55
2021/05/16 11:42:42;;;;;;;3.47;2.47;;;;;;;;;;5052712;28;20045;-55
2021/05/16 11:45:10;;;;;;;4.00;2.33;;;;;;;;;;5052769;28;20527;-55
2021/05/16 11:47:41;;;;;;;3.73;2.37;;;;;;;;;;5052911;28;20083;-55
2021/05/16 11:50:08;;;;;;;4.23;2.57;;;;;;;;;;5052660;28;20096;-55
2021/05/16 11:52:36;;;;;;;4.00;2.37;;;;;;;;;;5052697;28;20029;-55
2021/05/16 11:55:04;;;;;;;3.80;2.33;;;;;;;;;;5052725;28;20029;-55
2021/05/16 11:57:31;;;;;;;4.50;2.50;;;;;;;;;;5052667;28;20520;-55
2021/05/16 11:59:58;;;;;;;4.10;2.63;;;;;;;;;;5052594;28;20029;-55
2021/05/16 12:02:25;;;;;;;3.60;2.60;;;;;;;;;;5052448;28;20040;-55
2021/05/16 12:04:52;;;;;;;5.97;2.60;;;;;;;;;;5052668;28;20021;-55
2021/05/16 12:07:28;;;;;;;7.83;3.57;;;;;;;;;;5052516;28;20460;-55
2021/05/16 12:09:55;;;;;;;6.50;3.73;;;;;;;;;;5052552;28;20025;-55
2021/05/16 12:12:24;;;;;;;6.73;3.73;;;;;;;;;;5052375;28;20078;-55
2021/05/16 12:14:55;;;;;;;6.13;3.50;;;;;;;;;;5053242;28;20053;-55
2021/05/16 12:17:21;;;;;;;3.57;2.40;;;;;;;;;;5053110;28;20057;-55
2021/05/16 12:19:48;;;;;;;6.33;2.87;;;;;;;;;;5056677;28;20029;-55
2021/05/16 12:22:15;;;;;;;4.10;2.90;;;;;;;;;;5056445;28;20040;-55
2021/05/16 12:24:45;;;;;;;4.50;2.67;;;;;;;;;;5056459;28;20029;-55
2021/05/16 12:27:13;;;;;;;3.73;2.37;;;;;;;;;;5056537;28;20028;-55
2021/05/16 12:29:40;;;;;;;4.73;3.13;;;;;;;;;;5056400;28;20278;-55
2021/05/16 12:32:09;;;;;;;5.33;3.10;;;;;;;;;;5056443;28;20032;-55
2021/05/16 12:34:36;;;;;;;8.77;3.10;;;;;;;;;;5056213;28;20027;-55
2021/05/16 12:37:05;;;;;;;4.00;2.53;;;;;;;;;;5056290;28;20160;-55
2021/05/16 12:39:38;;;;;;;4.97;2.97;;;;;;;;;;5056130;28;20029;-55
2021/05/16 12:42:23;;;;;;;5.13;2.63;;;;;;;;;;5056103;28;20043;-55
2021/05/16 12:44:50;;;;;;;4.78;2.90;;;;;;;;;;5056252;28;20024;-55
2021/05/16 12:47:24;;;;;;;4.27;2.73;;;;;;;;;;5056104;28;20491;-55
2021/05/16 12:50:00;;;;;;;4.37;3.07;;;;;;;;;;5056112;28;20025;-55
2021/05/16 12:52:27;;;;;;;4.83;3.03;;;;;;;;;;5056019;28;20033;-55
2021/05/16 12:54:54;;;;;;;4.53;3.30;;;;;;;;;;5055954;28;20564;-54
2021/05/16 12:57:41;;;;;;;5.50;3.37;;;;;;;;;;5056008;28;20063;-55
2021/05/16 13:00:08;;;;;;;5.27;3.20;;;;;;;;;;5055747;28;20027;-54
2021/05/16 13:02:41;;;;;;;6.03;3.20;;;;;;;;;;5055730;28;20037;-54
2021/05/16 13:05:15;;;;;;;4.63;2.90;;;;;;;;;;5055941;28;20026;-55
2021/05/16 13:07:47;;;;;;;5.25;3.45;;;;;;;;;;5055745;28;20087;-55
2021/05/16 13:10:31;;;;;;;5.27;2.90;;;;;;;;;;5055406;28;20480;-55
2021/05/16 13:13:07;;;;;;;4.00;2.57;;;;;;;;;;5055620;28;20567;-55
2021/05/16 13:15:35;;;;;;;3.87;2.60;;;;;;;;;;5056629;28;20499;-55
2021/05/16 13:18:22;;;;;;;12.23;2.67;;;;;;;;;;5055537;28;20025;-55
2021/05/16 13:20:49;;;;;;;4.13;2.57;;;;;;;;;;5005141;28;20395;-55
2021/05/16 13:23:24;;;;;;;4.00;2.17;;;;;;;;;;5055467;28;20075;-55
2021/05/16 13:25:51;;;;;;;3.83;2.43;;;;;;;;;;5055348;28;20036;-55
2021/05/16 13:28:21;;;;;;;3.97;2.60;;;;;;;;;;5055258;28;20502;-55
2021/05/16 13:30:58;;;;;;;3.50;2.20;;;;;;;;;;5054475;28;20518;-55
2021/05/16 13:33:32;;;;;;;3.87;2.13;;;;;;;;;;5055326;28;20017;-55
2021/05/16 13:35:59;;;;;;;2.93;1.70;;;;;;;;;;5055258;28;20032;-54
2021/05/16 13:38:30;;;;;;;2.57;1.80;;;;;;;;;;5055075;28;20033;-55
2021/05/16 13:41:07;;;;;;;4.33;1.80;;;;;;;;;;5054991;28;20032;-55
2021/05/16 13:43:35;;;;;;;2.53;1.60;;;;;;;;;;5055083;28;20056;-55
2021/05/16 13:46:02;;;;;;;3.17;1.77;;;;;;;;;;5054962;28;20507;-55
2021/05/16 13:48:29;;;;;;;5.00;1.77;;;;;;;;;;5055029;28;20088;-55
2021/05/16 13:50:55;;;;;;;2.20;1.57;;;;;;;;;;5054650;28;20384;-55
2021/05/16 13:53:22;;;;;;;4.03;2.10;;;;;;;;;;5054925;28;20025;-55
2021/05/16 13:55:49;;;;;;;2.33;1.40;;;;;;;;;;5054638;28;20020;-55
2021/05/16 13:58:16;;;;;;;2.17;1.40;;;;;;;;;;5054776;28;20017;-55
2021/05/16 14:00:43;;;;;;;2.70;1.87;;;;;;;;;;5054470;28;20088;-55
2021/05/16 14:03:09;;;;;;;3.07;1.70;;;;;;;;;;5054427;28;20087;-55
2021/05/16 14:05:36;;;;;;;3.13;1.90;;;;;;;;;;5054585;28;20027;-55
2021/05/16 14:08:03;;;;;;;2.80;1.60;;;;;;;;;;5054596;28;20025;-55
2021/05/16 14:10:30;;;;;;;3.07;1.70;;;;;;;;;;5054373;28;20108;-55
2021/05/16 14:12:57;;;;;;;4.57;1.90;;;;;;;;;;5054395;28;20041;-55
2021/05/16 14:15:24;;;;;;;3.10;1.87;;;;;;;;;;5055429;28;20519;-55
2021/05/16 14:17:51;;;;;;;4.67;1.67;;;;;;;;;;5054431;28;20083;-55
2021/05/16 14:20:19;;;;;;;2.33;1.50;;;;;;;;;;5054555;28;20404;-55
2021/05/16 14:22:46;;;;;;;1.93;1.47;;;;;;;;;;5054349;28;20456;-55
2021/05/16 14:25:13;;;;;;;6.00;2.20;;;;;;;;;;5054187;28;20463;-55
2021/05/16 14:27:39;;;;;;;3.40;1.50;;;;;;;;;;5054195;28;20128;-55
2021/05/16 14:30:08;;;;;;;3.27;1.93;;;;;;;;;;5054096;28;20108;-55
2021/05/16 14:32:36;;;;;;;2.23;1.60;;;;;;;;;;5054384;28;20029;-55
2021/05/16 14:35:03;;;;;;;2.07;1.40;;;;;;;;;;5054194;28;20477;-55
2021/05/16 14:37:29;;;;;;;4.63;1.60;;;;;;;;;;5054143;28;20032;-55
2021/05/16 14:39:58;;;;;;;2.57;1.53;;;;;;;;;;5053893;28;20078;-55
2021/05/16 14:42:25;;;;;;;1.87;1.40;;;;;;;;;;5052684;28;20143;-55
2021/05/16 14:44:52;;;;;;;5.17;1.60;;;;;;;;;;5053823;28;20036;-55
2021/05/16 14:47:18;;;;;;;2.37;1.60;;;;;;;;;;5053793;28;20067;-56
2021/05/16 14:49:45;;;;;;;2.50;1.63;;;;;;;;;;5053671;28;20468;-56
2021/05/16 14:52:12;;;;;;;4.80;1.73;;;;;;;;;;5053703;28;20065;-56